Powassan, Canada
Current Conditions -  °F | °C
As of 10:00 AM on Thursday 30 Oct 2014 (Local Time) from CYYB Reporting Station
Overcast Overcast  
Wind Chill: 24°   Ceiling: 3000
Heat Index: 30°   Visibility: 15mi
Dew Point: 28°   Wind: 6mph
Humidity: 93%   Direction: 330°NNW
Pressure: 30.02"   Gusts: NA
Location:  46.08°N, 79.36°W
Report Text: CYYB 301400Z 33005KT 15SM FEW005 BKN030 OVC210 M01/M02 A3002 RMK SF2SC5CI1 SLP184
Loading
Personal Weather Stations






























Interactive Weather Map
Tropical Storm Tracking
New forecast layout! Learn more

10-Day Weather Forecast

Advertisements
Track Severe Weather on mobile